sensor_id;sensor_type;location;lat;lon;timestamp;temperature;humidity
78184;DHT22;67442;44.570;18.610;2023-11-18T00:00:09;22.10;72.40
78184;DHT22;67442;44.570;18.610;2023-11-18T00:02:38;22.10;72.40
78184;DHT22;67442;44.570;18.610;2023-11-18T00:05:12;22.10;72.40
78184;DHT22;67442;44.570;18.610;2023-11-18T00:07:40;22.10;72.30
78184;DHT22;67442;44.570;18.610;2023-11-18T00:10:08;22.20;72.50
78184;DHT22;67442;44.570;18.610;2023-11-18T00:12:36;22.10;72.40
78184;DHT22;67442;44.570;18.610;2023-11-18T00:15:04;22.10;72.40
78184;DHT22;67442;44.570;18.610;2023-11-18T00:17:35;22.20;73.30
78184;DHT22;67442;44.570;18.610;2023-11-18T00:20:06;22.20;72.50
78184;DHT22;67442;44.570;18.610;2023-11-18T00:22:54;22.20;72.50
78184;DHT22;67442;44.570;18.610;2023-11-18T00:25:25;22.20;72.50
78184;DHT22;67442;44.570;18.610;2023-11-18T00:27:52;22.20;72.50
78184;DHT22;67442;44.570;18.610;2023-11-18T00:30:21;22.20;72.50
78184;DHT22;67442;44.570;18.610;2023-11-18T00:32:52;22.20;72.60
78184;DHT22;67442;44.570;18.610;2023-11-18T00:35:19;22.20;72.60
78184;DHT22;67442;44.570;18.610;2023-11-18T00:37:47;22.20;72.60
78184;DHT22;67442;44.570;18.610;2023-11-18T00:40:15;22.20;72.60
78184;DHT22;67442;44.570;18.610;2023-11-18T00:42:47;22.20;72.60
78184;DHT22;67442;44.570;18.610;2023-11-18T00:45:14;22.20;72.60
78184;DHT22;67442;44.570;18.610;2023-11-18T00:47:47;22.20;72.60
78184;DHT22;67442;44.570;18.610;2023-11-18T00:50:15;22.20;72.60
78184;DHT22;67442;44.570;18.610;2023-11-18T00:52:42;22.20;72.60
78184;DHT22;67442;44.570;18.610;2023-11-18T00:55:10;22.30;72.60
78184;DHT22;67442;44.570;18.610;2023-11-18T00:57:37;22.30;72.60
78184;DHT22;67442;44.570;18.610;2023-11-18T01:00:10;22.30;72.60
78184;DHT22;67442;44.570;18.610;2023-11-18T01:02:43;22.30;72.60
78184;DHT22;67442;44.570;18.610;2023-11-18T01:05:11;22.30;72.60
78184;DHT22;67442;44.570;18.610;2023-11-18T01:07:39;22.30;72.60
78184;DHT22;67442;44.570;18.610;2023-11-18T01:10:09;22.30;72.60
78184;DHT22;67442;44.570;18.610;2023-11-18T01:12:37;22.30;72.60
78184;DHT22;67442;44.570;18.610;2023-11-18T01:15:05;22.30;72.60
78184;DHT22;67442;44.570;18.610;2023-11-18T01:17:36;22.30;72.60
78184;DHT22;67442;44.570;18.610;2023-11-18T01:20:05;22.30;72.60
78184;DHT22;67442;44.570;18.610;2023-11-18T01:22:37;22.30;72.60
78184;DHT22;67442;44.570;18.610;2023-11-18T01:25:07;22.30;72.60
78184;DHT22;67442;44.570;18.610;2023-11-18T01:27:35;22.30;72.60
78184;DHT22;67442;44.570;18.610;2023-11-18T01:30:08;22.30;72.60
78184;DHT22;67442;44.570;18.610;2023-11-18T01:32:36;22.30;72.60
78184;DHT22;67442;44.570;18.610;2023-11-18T01:35:06;22.30;72.60
78184;DHT22;67442;44.570;18.610;2023-11-18T01:37:34;22.30;72.60
78184;DHT22;67442;44.570;18.610;2023-11-18T01:40:02;22.30;72.60
78184;DHT22;67442;44.570;18.610;2023-11-18T01:42:34;22.40;72.60
78184;DHT22;67442;44.570;18.610;2023-11-18T01:45:06;22.30;72.60
78184;DHT22;67442;44.570;18.610;2023-11-18T01:47:39;22.40;72.70
78184;DHT22;67442;44.570;18.610;2023-11-18T01:50:08;22.40;72.70
78184;DHT22;67442;44.570;18.610;2023-11-18T01:52:36;22.40;72.60
78184;DHT22;67442;44.570;18.610;2023-11-18T01:55:03;22.40;72.60
78184;DHT22;67442;44.570;18.610;2023-11-18T01:57:34;22.40;72.60
78184;DHT22;67442;44.570;18.610;2023-11-18T02:00:06;22.40;72.70
78184;DHT22;67442;44.570;18.610;2023-11-18T02:02:33;22.40;72.70
78184;DHT22;67442;44.570;18.610;2023-11-18T02:05:05;22.40;72.70
78184;DHT22;67442;44.570;18.610;2023-11-18T02:07:34;22.40;72.70
78184;DHT22;67442;44.570;18.610;2023-11-18T02:10:05;22.40;72.70
78184;DHT22;67442;44.570;18.610;2023-11-18T02:15:24;22.40;72.70
78184;DHT22;67442;44.570;18.610;2023-11-18T02:17:58;22.40;72.70
78184;DHT22;67442;44.570;18.610;2023-11-18T02:20:25;22.40;72.80
78184;DHT22;67442;44.570;18.610;2023-11-18T02:22:53;22.40;72.80
78184;DHT22;67442;44.570;18.610;2023-11-18T02:25:24;22.40;72.70
78184;DHT22;67442;44.570;18.610;2023-11-18T02:27:55;22.40;72.80
78184;DHT22;67442;44.570;18.610;2023-11-18T02:30:22;22.40;72.70
78184;DHT22;67442;44.570;18.610;2023-11-18T02:32:59;22.40;72.80
78184;DHT22;67442;44.570;18.610;2023-11-18T02:35:37;22.40;72.70
78184;DHT22;67442;44.570;18.610;2023-11-18T02:38:05;22.40;72.70
78184;DHT22;67442;44.570;18.610;2023-11-18T02:40:36;22.50;72.90
78184;DHT22;67442;44.570;18.610;2023-11-18T02:43:08;22.40;72.70
78184;DHT22;67442;44.570;18.610;2023-11-18T02:45:37;22.40;72.70
78184;DHT22;67442;44.570;18.610;2023-11-18T02:48:04;22.40;72.70
78184;DHT22;67442;44.570;18.610;2023-11-18T02:50:33;22.40;72.70
78184;DHT22;67442;44.570;18.610;2023-11-18T02:53:02;22.50;72.80
78184;DHT22;67442;44.570;18.610;2023-11-18T02:55:29;22.50;72.80
78184;DHT22;67442;44.570;18.610;2023-11-18T02:57:57;22.40;72.70
78184;DHT22;67442;44.570;18.610;2023-11-18T03:00:24;22.50;72.80
78184;DHT22;67442;44.570;18.610;2023-11-18T03:02:55;22.50;72.80
78184;DHT22;67442;44.570;18.610;2023-11-18T03:05:22;22.50;72.80
78184;DHT22;67442;44.570;18.610;2023-11-18T03:07:49;22.50;72.80
78184;DHT22;67442;44.570;18.610;2023-11-18T03:10:17;22.50;72.80
78184;DHT22;67442;44.570;18.610;2023-11-18T03:12:53;22.50;72.80
78184;DHT22;67442;44.570;18.610;2023-11-18T03:15:21;22.50;72.80
78184;DHT22;67442;44.570;18.610;2023-11-18T03:17:49;22.50;72.80
78184;DHT22;67442;44.570;18.610;2023-11-18T03:20:22;22.50;72.80
78184;DHT22;67442;44.570;18.610;2023-11-18T03:22:50;22.50;72.70
78184;DHT22;67442;44.570;18.610;2023-11-18T03:25:20;22.50;72.70
78184;DHT22;67442;44.570;18.610;2023-11-18T03:27:48;22.50;72.80
78184;DHT22;67442;44.570;18.610;2023-11-18T03:30:15;22.50;72.70
78184;DHT22;67442;44.570;18.610;2023-11-18T03:32:43;22.50;72.70
78184;DHT22;67442;44.570;18.610;2023-11-18T03:35:14;22.50;72.80
78184;DHT22;67442;44.570;18.610;2023-11-18T03:37:42;22.50;72.70
78184;DHT22;67442;44.570;18.610;2023-11-18T03:40:14;22.50;72.70
78184;DHT22;67442;44.570;18.610;2023-11-18T03:42:44;22.50;72.70
78184;DHT22;67442;44.570;18.610;2023-11-18T03:45:31;22.50;72.70
78184;DHT22;67442;44.570;18.610;2023-11-18T03:47:59;22.50;72.80
78184;DHT22;67442;44.570;18.610;2023-11-18T03:50:27;22.50;72.70
78184;DHT22;67442;44.570;18.610;2023-11-18T03:52:59;22.50;72.70
78184;DHT22;67442;44.570;18.610;2023-11-18T03:55:26;22.50;72.70
78184;DHT22;67442;44.570;18.610;2023-11-18T03:57:57;22.50;72.70
78184;DHT22;67442;44.570;18.610;2023-11-18T04:00:24;22.50;72.70
78184;DHT22;67442;44.570;18.610;2023-11-18T04:02:56;22.50;72.70
78184;DHT22;67442;44.570;18.610;2023-11-18T04:05:24;22.50;72.70
78184;DHT22;67442;44.570;18.610;2023-11-18T04:07:56;22.50;72.60
78184;DHT22;67442;44.570;18.610;2023-11-18T04:10:23;22.50;72.70
78184;DHT22;67442;44.570;18.610;2023-11-18T04:12:50;22.50;72.60
78184;DHT22;67442;44.570;18.610;2023-11-18T04:15:18;22.50;72.60
78184;DHT22;67442;44.570;18.610;2023-11-18T04:17:49;22.50;72.60
78184;DHT22;67442;44.570;18.610;2023-11-18T04:20:16;22.50;72.60
78184;DHT22;67442;44.570;18.610;2023-11-18T04:22:44;22.50;72.60
78184;DHT22;67442;44.570;18.610;2023-11-18T04:25:12;22.50;72.60
78184;DHT22;67442;44.570;18.610;2023-11-18T04:27:39;22.50;72.60
78184;DHT22;67442;44.570;18.610;2023-11-18T04:30:05;22.50;72.60
78184;DHT22;67442;44.570;18.610;2023-11-18T04:32:35;22.50;72.70
78184;DHT22;67442;44.570;18.610;2023-11-18T04:35:03;22.50;72.60
78184;DHT22;67442;44.570;18.610;2023-11-18T04:37:34;22.50;72.60
78184;DHT22;67442;44.570;18.610;2023-11-18T04:40:01;22.60;72.60
78184;DHT22;67442;44.570;18.610;2023-11-18T04:42:29;22.50;72.60
78184;DHT22;67442;44.570;18.610;2023-11-18T04:44:57;22.60;72.60
78184;DHT22;67442;44.570;18.610;2023-11-18T04:47:24;22.60;72.60
78184;DHT22;67442;44.570;18.610;2023-11-18T04:49:53;22.60;72.60
78184;DHT22;67442;44.570;18.610;2023-11-18T04:52:20;22.60;72.60
78184;DHT22;67442;44.570;18.610;2023-11-18T04:54:47;22.50;73.30
78184;DHT22;67442;44.570;18.610;2023-11-18T04:57:14;22.60;72.60
78184;DHT22;67442;44.570;18.610;2023-11-18T04:59:46;22.50;72.60
78184;DHT22;67442;44.570;18.610;2023-11-18T05:02:13;22.50;72.50
78184;DHT22;67442;44.570;18.610;2023-11-18T05:04:40;22.60;72.60
78184;DHT22;67442;44.570;18.610;2023-11-18T05:07:08;22.60;72.60
78184;DHT22;67442;44.570;18.610;2023-11-18T05:09:39;22.60;72.60
78184;DHT22;67442;44.570;18.610;2023-11-18T05:12:07;22.60;72.50
78184;DHT22;67442;44.570;18.610;2023-11-18T05:14:36;22.50;72.50
78184;DHT22;67442;44.570;18.610;2023-11-18T05:17:04;22.60;72.60
78184;DHT22;67442;44.570;18.610;2023-11-18T05:19:31;22.60;72.50
78184;DHT22;67442;44.570;18.610;2023-11-18T05:22:02;22.60;72.50
78184;DHT22;67442;44.570;18.610;2023-11-18T05:24:34;22.60;72.50
78184;DHT22;67442;44.570;18.610;2023-11-18T05:27:01;22.60;72.60
78184;DHT22;67442;44.570;18.610;2023-11-18T05:29:28;22.60;72.50
78184;DHT22;67442;44.570;18.610;2023-11-18T05:31:55;22.60;72.50
78184;DHT22;67442;44.570;18.610;2023-11-18T05:34:23;22.60;72.50
78184;DHT22;67442;44.570;18.610;2023-11-18T05:36:51;22.60;72.50
78184;DHT22;67442;44.570;18.610;2023-11-18T05:39:23;22.60;72.50
78184;DHT22;67442;44.570;18.610;2023-11-18T05:42:00;22.60;72.50
78184;DHT22;67442;44.570;18.610;2023-11-18T05:44:27;22.60;72.50
78184;DHT22;67442;44.570;18.610;2023-11-18T05:47:04;22.60;72.50
78184;DHT22;67442;44.570;18.610;2023-11-18T05:49:33;22.60;72.40
78184;DHT22;67442;44.570;18.610;2023-11-18T05:52:01;22.60;73.20
78184;DHT22;67442;44.570;18.610;2023-11-18T05:54:28;22.60;72.40
78184;DHT22;67442;44.570;18.610;2023-11-18T05:56:55;22.60;72.50
78184;DHT22;67442;44.570;18.610;2023-11-18T05:59:28;22.60;72.40
78184;DHT22;67442;44.570;18.610;2023-11-18T06:01:55;22.60;72.30
78184;DHT22;67442;44.570;18.610;2023-11-18T06:04:23;22.60;72.40
78184;DHT22;67442;44.570;18.610;2023-11-18T06:06:52;22.60;72.30
78184;DHT22;67442;44.570;18.610;2023-11-18T06:09:19;22.60;72.40
78184;DHT22;67442;44.570;18.610;2023-11-18T06:11:49;22.60;72.30
78184;DHT22;67442;44.570;18.610;2023-11-18T06:14:17;22.60;72.30
78184;DHT22;67442;44.570;18.610;2023-11-18T06:16:49;22.60;72.30
78184;DHT22;67442;44.570;18.610;2023-11-18T06:19:21;22.60;72.30
78184;DHT22;67442;44.570;18.610;2023-11-18T06:21:48;22.60;72.30
78184;DHT22;67442;44.570;18.610;2023-11-18T06:24:16;22.60;72.30
78184;DHT22;67442;44.570;18.610;2023-11-18T06:26:45;22.50;72.20
78184;DHT22;67442;44.570;18.610;2023-11-18T06:29:13;22.50;72.30
78184;DHT22;67442;44.570;18.610;2023-11-18T06:31:41;22.50;72.20
78184;DHT22;67442;44.570;18.610;2023-11-18T06:34:08;22.50;72.20
78184;DHT22;67442;44.570;18.610;2023-11-18T06:36:36;22.50;72.20
78184;DHT22;67442;44.570;18.610;2023-11-18T06:39:03;22.50;72.20
78184;DHT22;67442;44.570;18.610;2023-11-18T06:41:33;22.50;72.20
78184;DHT22;67442;44.570;18.610;2023-11-18T06:44:03;22.50;72.20
78184;DHT22;67442;44.570;18.610;2023-11-18T06:46:52;22.50;72.20
78184;DHT22;67442;44.570;18.610;2023-11-18T06:49:19;22.50;72.20
78184;DHT22;67442;44.570;18.610;2023-11-18T06:51:47;22.50;72.20
78184;DHT22;67442;44.570;18.610;2023-11-18T06:54:17;22.50;72.20
78184;DHT22;67442;44.570;18.610;2023-11-18T06:56:48;22.50;72.20
78184;DHT22;67442;44.570;18.610;2023-11-18T06:59:17;22.50;72.20
78184;DHT22;67442;44.570;18.610;2023-11-18T07:01:45;22.50;72.20
78184;DHT22;67442;44.570;18.610;2023-11-18T07:04:12;22.60;72.20
78184;DHT22;67442;44.570;18.610;2023-11-18T07:06:44;22.50;72.10
78184;DHT22;67442;44.570;18.610;2023-11-18T07:09:12;22.50;72.90
78184;DHT22;67442;44.570;18.610;2023-11-18T07:11:40;22.60;72.20
78184;DHT22;67442;44.570;18.610;2023-11-18T07:14:10;22.50;72.10
78184;DHT22;67442;44.570;18.610;2023-11-18T07:16:39;22.50;72.10
78184;DHT22;67442;44.570;18.610;2023-11-18T07:19:07;22.50;72.10
78184;DHT22;67442;44.570;18.610;2023-11-18T07:21:34;22.50;72.10
78184;DHT22;67442;44.570;18.610;2023-11-18T07:24:01;22.60;72.10
78184;DHT22;67442;44.570;18.610;2023-11-18T07:26:29;22.60;72.20
78184;DHT22;67442;44.570;18.610;2023-11-18T07:28:56;22.60;72.20
78184;DHT22;67442;44.570;18.610;2023-11-18T07:31:24;22.50;72.10
78184;DHT22;67442;44.570;18.610;2023-11-18T07:33:51;22.60;72.10
78184;DHT22;67442;44.570;18.610;2023-11-18T07:36:19;22.60;72.10
78184;DHT22;67442;44.570;18.610;2023-11-18T07:38:50;22.50;72.00
78184;DHT22;67442;44.570;18.610;2023-11-18T07:41:22;22.50;72.00
78184;DHT22;67442;44.570;18.610;2023-11-18T07:43:54;22.60;72.10
78184;DHT22;67442;44.570;18.610;2023-11-18T07:46:23;22.50;72.10
78184;DHT22;67442;44.570;18.610;2023-11-18T07:48:53;22.60;72.10
78184;DHT22;67442;44.570;18.610;2023-11-18T07:51:24;22.60;72.10
78184;DHT22;67442;44.570;18.610;2023-11-18T07:53:52;22.60;72.10
78184;DHT22;67442;44.570;18.610;2023-11-18T07:56:21;22.60;72.10
78184;DHT22;67442;44.570;18.610;2023-11-18T08:03:03;22.60;71.00
78184;DHT22;67442;44.570;18.610;2023-11-18T08:05:33;22.60;71.90
78184;DHT22;67442;44.570;18.610;2023-11-18T08:08:01;22.50;71.80
78184;DHT22;67442;44.570;18.610;2023-11-18T08:10:33;22.50;71.60
78184;DHT22;67442;44.570;18.610;2023-11-18T08:13:07;22.50;70.70
78184;DHT22;67442;44.570;18.610;2023-11-18T08:15:37;22.50;70.10
78184;DHT22;67442;44.570;18.610;2023-11-18T08:18:06;22.50;70.10
78184;DHT22;67442;44.570;18.610;2023-11-18T08:20:37;22.50;70.30
78184;DHT22;67442;44.570;18.610;2023-11-18T08:23:04;22.50;70.50
78184;DHT22;67442;44.570;18.610;2023-11-18T08:25:31;22.50;70.60
78184;DHT22;67442;44.570;18.610;2023-11-18T08:28:07;22.50;70.70
78184;DHT22;67442;44.570;18.610;2023-11-18T08:30:34;22.50;70.80
78184;DHT22;67442;44.570;18.610;2023-11-18T08:33:03;22.50;70.80
78184;DHT22;67442;44.570;18.610;2023-11-18T08:35:31;22.50;70.90
78184;DHT22;67442;44.570;18.610;2023-11-18T08:37:58;22.60;70.90
78184;DHT22;67442;44.570;18.610;2023-11-18T08:40:30;22.60;70.90
78184;DHT22;67442;44.570;18.610;2023-11-18T08:42:57;22.60;71.00
78184;DHT22;67442;44.570;18.610;2023-11-18T08:45:27;22.60;71.10
78184;DHT22;67442;44.570;18.610;2023-11-18T08:48:01;22.60;71.00
78184;DHT22;67442;44.570;18.610;2023-11-18T08:50:44;22.70;71.10
78184;DHT22;67442;44.570;18.610;2023-11-18T08:53:15;22.60;71.00
78184;DHT22;67442;44.570;18.610;2023-11-18T08:55:45;22.70;71.00
78184;DHT22;67442;44.570;18.610;2023-11-18T08:58:22;22.70;71.00
78184;DHT22;67442;44.570;18.610;2023-11-18T09:00:59;22.70;71.00
78184;DHT22;67442;44.570;18.610;2023-11-18T09:03:34;22.70;71.10
78184;DHT22;67442;44.570;18.610;2023-11-18T09:06:06;22.70;71.00
78184;DHT22;67442;44.570;18.610;2023-11-18T09:08:45;22.70;71.00
78184;DHT22;67442;44.570;18.610;2023-11-18T09:11:24;22.70;71.00
78184;DHT22;67442;44.570;18.610;2023-11-18T09:13:55;22.70;71.10
78184;DHT22;67442;44.570;18.610;2023-11-18T09:16:26;22.70;71.10
78184;DHT22;67442;44.570;18.610;2023-11-18T09:18:57;22.60;71.10
78184;DHT22;67442;44.570;18.610;2023-11-18T09:21:29;22.60;71.00
78184;DHT22;67442;44.570;18.610;2023-11-18T09:23:59;22.70;71.10
78184;DHT22;67442;44.570;18.610;2023-11-18T09:26:26;22.70;71.10
78184;DHT22;67442;44.570;18.610;2023-11-18T09:28:59;22.60;70.90
78184;DHT22;67442;44.570;18.610;2023-11-18T09:31:28;22.60;70.90
78184;DHT22;67442;44.570;18.610;2023-11-18T09:33:55;22.60;70.90
78184;DHT22;67442;44.570;18.610;2023-11-18T09:36:26;22.60;70.90
78184;DHT22;67442;44.570;18.610;2023-11-18T09:38:55;22.60;70.90
78184;DHT22;67442;44.570;18.610;2023-11-18T09:41:23;22.60;70.80
78184;DHT22;67442;44.570;18.610;2023-11-18T09:44:09;22.60;70.80
78184;DHT22;67442;44.570;18.610;2023-11-18T09:46:42;22.60;70.80
78184;DHT22;67442;44.570;18.610;2023-11-18T09:49:40;22.60;70.80
78184;DHT22;67442;44.570;18.610;2023-11-18T09:52:07;22.60;70.80
78184;DHT22;67442;44.570;18.610;2023-11-18T09:54:57;22.60;70.80
78184;DHT22;67442;44.570;18.610;2023-11-18T09:57:33;22.60;70.80
78184;DHT22;67442;44.570;18.610;2023-11-18T10:00:07;22.50;70.80
78184;DHT22;67442;44.570;18.610;2023-11-18T10:02:58;22.50;70.80
78184;DHT22;67442;44.570;18.610;2023-11-18T10:05:29;22.50;70.80
78184;DHT22;67442;44.570;18.610;2023-11-18T10:07:56;22.50;70.80
78184;DHT22;67442;44.570;18.610;2023-11-18T10:10:28;22.50;70.90
78184;DHT22;67442;44.570;18.610;2023-11-18T10:13:03;22.50;70.90
78184;DHT22;67442;44.570;18.610;2023-11-18T10:15:50;22.50;70.90
78184;DHT22;67442;44.570;18.610;2023-11-18T10:18:23;22.50;71.00
78184;DHT22;67442;44.570;18.610;2023-11-18T10:20:55;22.60;71.10
78184;DHT22;67442;44.570;18.610;2023-11-18T10:23:23;22.60;71.10
78184;DHT22;67442;44.570;18.610;2023-11-18T10:25:58;22.60;71.20
78184;DHT22;67442;44.570;18.610;2023-11-18T10:28:34;22.50;71.10
78184;DHT22;67442;44.570;18.610;2023-11-18T10:31:08;22.60;71.20
78184;DHT22;67442;44.570;18.610;2023-11-18T10:33:41;22.50;71.20
78184;DHT22;67442;44.570;18.610;2023-11-18T10:36:21;22.60;71.30
78184;DHT22;67442;44.570;18.610;2023-11-18T10:38:50;22.60;71.40
78184;DHT22;67442;44.570;18.610;2023-11-18T10:41:21;22.60;71.40
78184;DHT22;67442;44.570;18.610;2023-11-18T10:43:47;22.60;71.40
78184;DHT22;67442;44.570;18.610;2023-11-18T10:46:16;22.60;71.40
78184;DHT22;67442;44.570;18.610;2023-11-18T10:48:47;22.60;71.40
78184;DHT22;67442;44.570;18.610;2023-11-18T10:51:21;22.60;71.40
78184;DHT22;67442;44.570;18.610;2023-11-18T10:54:08;22.60;71.50
78184;DHT22;67442;44.570;18.610;2023-11-18T10:56:52;22.60;71.50
78184;DHT22;67442;44.570;18.610;2023-11-18T10:59:25;22.60;71.50
78184;DHT22;67442;44.570;18.610;2023-11-18T11:01:53;22.60;71.60
78184;DHT22;67442;44.570;18.610;2023-11-18T11:04:24;22.60;71.60
78184;DHT22;67442;44.570;18.610;2023-11-18T11:06:55;22.60;71.60
78184;DHT22;67442;44.570;18.610;2023-11-18T11:09:24;22.60;71.50
78184;DHT22;67442;44.570;18.610;2023-11-18T11:11:58;22.60;71.60
78184;DHT22;67442;44.570;18.610;2023-11-18T11:14:53;22.60;71.50
78184;DHT22;67442;44.570;18.610;2023-11-18T11:17:27;22.60;71.50
78184;DHT22;67442;44.570;18.610;2023-11-18T11:28:23;22.60;71.50
78184;DHT22;67442;44.570;18.610;2023-11-18T11:31:03;22.60;71.50
78184;DHT22;67442;44.570;18.610;2023-11-18T11:33:44;22.60;71.50
78184;DHT22;67442;44.570;18.610;2023-11-18T11:36:20;22.60;71.50
78184;DHT22;67442;44.570;18.610;2023-11-18T11:38:51;22.60;71.60
78184;DHT22;67442;44.570;18.610;2023-11-18T11:41:20;22.60;71.50
78184;DHT22;67442;44.570;18.610;2023-11-18T11:43:55;22.60;71.60
78184;DHT22;67442;44.570;18.610;2023-11-18T11:46:26;22.60;71.60
78184;DHT22;67442;44.570;18.610;2023-11-18T11:49:01;22.60;71.60
78184;DHT22;67442;44.570;18.610;2023-11-18T11:51:48;22.60;71.60
78184;DHT22;67442;44.570;18.610;2023-11-18T11:54:29;22.60;71.60
78184;DHT22;67442;44.570;18.610;2023-11-18T11:57:03;22.60;71.60
78184;DHT22;67442;44.570;18.610;2023-11-18T11:59:53;22.60;71.60
78184;DHT22;67442;44.570;18.610;2023-11-18T12:02:28;22.60;71.60
78184;DHT22;67442;44.570;18.610;2023-11-18T12:05:01;22.60;71.60
78184;DHT22;67442;44.570;18.610;2023-11-18T12:07:33;22.60;71.60
78184;DHT22;67442;44.570;18.610;2023-11-18T12:10:09;22.60;71.60
78184;DHT22;67442;44.570;18.610;2023-11-18T12:12:42;22.60;71.60
78184;DHT22;67442;44.570;18.610;2023-11-18T12:15:09;22.60;71.60
78184;DHT22;67442;44.570;18.610;2023-11-18T12:20:43;22.60;71.60
78184;DHT22;67442;44.570;18.610;2023-11-18T12:23:28;22.60;71.60
78184;DHT22;67442;44.570;18.610;2023-11-18T12:25:57;22.60;71.60
78184;DHT22;67442;44.570;18.610;2023-11-18T12:28:25;22.60;71.60
78184;DHT22;67442;44.570;18.610;2023-11-18T12:31:11;22.60;71.70
78184;DHT22;67442;44.570;18.610;2023-11-18T12:34:04;22.60;71.70
78184;DHT22;67442;44.570;18.610;2023-11-18T12:37:41;22.60;71.70
78184;DHT22;67442;44.570;18.610;2023-11-18T12:43:48;22.60;71.80
78184;DHT22;67442;44.570;18.610;2023-11-18T12:46:51;22.60;71.70
78184;DHT22;67442;44.570;18.610;2023-11-18T12:49:21;22.60;71.80
78184;DHT22;67442;44.570;18.610;2023-11-18T12:52:12;22.50;71.60
78184;DHT22;67442;44.570;18.610;2023-11-18T12:54:58;22.50;71.70
78184;DHT22;67442;44.570;18.610;2023-11-18T12:57:48;22.50;71.70
78184;DHT22;67442;44.570;18.610;2023-11-18T13:00:34;22.60;71.80
78184;DHT22;67442;44.570;18.610;2023-11-18T13:03:21;22.50;71.70
78184;DHT22;67442;44.570;18.610;2023-11-18T13:06:11;22.50;71.80
78184;DHT22;67442;44.570;18.610;2023-11-18T13:08:42;22.50;71.70
78184;DHT22;67442;44.570;18.610;2023-11-18T13:11:29;22.60;71.80
78184;DHT22;67442;44.570;18.610;2023-11-18T13:14:17;22.50;71.80
78184;DHT22;67442;44.570;18.610;2023-11-18T13:16:44;22.50;71.70
78184;DHT22;67442;44.570;18.610;2023-11-18T13:19:31;22.60;71.80
78184;DHT22;67442;44.570;18.610;2023-11-18T13:22:18;22.50;71.70
78184;DHT22;67442;44.570;18.610;2023-11-18T13:25:05;22.50;71.80
78184;DHT22;67442;44.570;18.610;2023-11-18T13:27:54;22.50;72.50
78184;DHT22;67442;44.570;18.610;2023-11-18T13:30:41;22.60;71.80
78184;DHT22;67442;44.570;18.610;2023-11-18T13:33:28;22.50;71.80
78184;DHT22;67442;44.570;18.610;2023-11-18T13:36:15;22.50;71.80
78184;DHT22;67442;44.570;18.610;2023-11-18T13:39:02;22.50;71.80
78184;DHT22;67442;44.570;18.610;2023-11-18T13:41:50;22.50;72.10
78184;DHT22;67442;44.570;18.610;2023-11-18T13:44:38;22.50;71.80
78184;DHT22;67442;44.570;18.610;2023-11-18T13:47:26;22.50;71.90
78184;DHT22;67442;44.570;18.610;2023-11-18T13:50:16;22.50;71.80
78184;DHT22;67442;44.570;18.610;2023-11-18T13:53:03;22.50;71.90
78184;DHT22;67442;44.570;18.610;2023-11-18T13:55:49;22.50;71.90
78184;DHT22;67442;44.570;18.610;2023-11-18T13:58:37;22.50;71.90
78184;DHT22;67442;44.570;18.610;2023-11-18T14:01:25;22.50;71.90
78184;DHT22;67442;44.570;18.610;2023-11-18T14:04:12;22.50;71.90
78184;DHT22;67442;44.570;18.610;2023-11-18T14:06:59;22.50;72.20
78184;DHT22;67442;44.570;18.610;2023-11-18T14:09:46;22.50;71.90
78184;DHT22;67442;44.570;18.610;2023-11-18T14:12:33;22.50;71.90
78184;DHT22;67442;44.570;18.610;2023-11-18T14:15:20;22.50;71.90
78184;DHT22;67442;44.570;18.610;2023-11-18T14:17:47;22.40;71.90
78184;DHT22;67442;44.570;18.610;2023-11-18T14:20:16;22.40;71.90
78184;DHT22;67442;44.570;18.610;2023-11-18T14:22:49;22.40;71.90
78184;DHT22;67442;44.570;18.610;2023-11-18T14:25:17;22.40;71.90
78184;DHT22;67442;44.570;18.610;2023-11-18T14:27:52;22.40;71.90
78184;DHT22;67442;44.570;18.610;2023-11-18T14:30:23;22.40;71.90
78184;DHT22;67442;44.570;18.610;2023-11-18T14:32:52;22.40;71.90
78184;DHT22;67442;44.570;18.610;2023-11-18T14:35:19;22.40;71.90
78184;DHT22;67442;44.570;18.610;2023-11-18T14:37:47;22.40;72.00
78184;DHT22;67442;44.570;18.610;2023-11-18T14:40:18;22.40;71.90
78184;DHT22;67442;44.570;18.610;2023-11-18T14:42:47;22.40;72.00
78184;DHT22;67442;44.570;18.610;2023-11-18T14:45:14;22.40;71.90
78184;DHT22;67442;44.570;18.610;2023-11-18T14:47:45;22.40;71.90
78184;DHT22;67442;44.570;18.610;2023-11-18T14:50:18;22.40;72.00
78184;DHT22;67442;44.570;18.610;2023-11-18T14:52:45;22.40;71.90
78184;DHT22;67442;44.570;18.610;2023-11-18T14:55:13;22.40;72.00
78184;DHT22;67442;44.570;18.610;2023-11-18T14:57:40;22.40;71.90
78184;DHT22;67442;44.570;18.610;2023-11-18T15:00:09;22.40;72.00
78184;DHT22;67442;44.570;18.610;2023-11-18T15:02:39;22.40;71.90
78184;DHT22;67442;44.570;18.610;2023-11-18T15:05:07;22.40;72.00
78184;DHT22;67442;44.570;18.610;2023-11-18T15:07:38;22.40;72.00
78184;DHT22;67442;44.570;18.610;2023-11-18T15:10:06;22.30;71.90
78184;DHT22;67442;44.570;18.610;2023-11-18T15:12:34;22.30;71.90
78184;DHT22;67442;44.570;18.610;2023-11-18T15:15:04;22.30;71.90
78184;DHT22;67442;44.570;18.610;2023-11-18T15:17:33;22.30;71.90
78184;DHT22;67442;44.570;18.610;2023-11-18T15:20:07;22.30;71.90
78184;DHT22;67442;44.570;18.610;2023-11-18T15:22:39;22.30;72.00
78184;DHT22;67442;44.570;18.610;2023-11-18T15:25:09;22.30;72.00
78184;DHT22;67442;44.570;18.610;2023-11-18T15:27:40;22.30;71.90
78184;DHT22;67442;44.570;18.610;2023-11-18T15:30:14;22.30;72.80
78184;DHT22;67442;44.570;18.610;2023-11-18T15:32:41;22.30;71.90
78184;DHT22;67442;44.570;18.610;2023-11-18T15:35:08;22.30;71.90
78184;DHT22;67442;44.570;18.610;2023-11-18T15:37:42;22.30;72.00
78184;DHT22;67442;44.570;18.610;2023-11-18T15:40:16;22.30;71.90
78184;DHT22;67442;44.570;18.610;2023-11-18T15:42:48;22.30;71.90
78184;DHT22;67442;44.570;18.610;2023-11-18T15:45:22;22.20;71.90
78184;DHT22;67442;44.570;18.610;2023-11-18T15:47:55;22.30;72.00
78184;DHT22;67442;44.570;18.610;2023-11-18T15:50:26;22.30;72.00
78184;DHT22;67442;44.570;18.610;2023-11-18T15:52:58;22.30;72.00
78184;DHT22;67442;44.570;18.610;2023-11-18T15:55:25;22.30;72.00
78184;DHT22;67442;44.570;18.610;2023-11-18T15:57:53;22.30;71.90
78184;DHT22;67442;44.570;18.610;2023-11-18T16:00:21;22.20;71.90
78184;DHT22;67442;44.570;18.610;2023-11-18T16:02:55;22.20;71.90
78184;DHT22;67442;44.570;18.610;2023-11-18T16:05:25;22.20;71.90
78184;DHT22;67442;44.570;18.610;2023-11-18T16:07:53;22.30;72.00